createdAt,value
2023-02-23T00:02:08.926Z,98451.28
2023-02-23T00:04:37.102Z,98445.41
2023-02-23T00:07:09.612Z,98447.34
2023-02-23T00:09:36.846Z,98444.72
2023-02-23T00:12:09.861Z,98444.22
2023-02-23T00:14:38.698Z,98453.16
2023-02-23T00:17:14.410Z,98444.78
2023-02-23T00:19:43.894Z,98440.56
2023-02-23T00:22:12.035Z,98441.06
2023-02-23T00:24:40.623Z,98439.84
2023-02-23T00:27:07.886Z,98439.00
2023-02-23T00:29:39.624Z,98435.44
2023-02-23T00:32:07.373Z,98434.41
2023-02-23T00:34:36.800Z,98433.44
2023-02-23T00:37:05.064Z,98435.97
2023-02-23T00:39:32.578Z,98440.69
2023-02-23T00:42:03.092Z,98437.47
2023-02-23T00:44:34.057Z,98430.94
2023-02-23T00:47:02.395Z,98439.81
2023-02-23T00:49:29.784Z,98439.22
2023-02-23T00:51:57.308Z,98435.38
2023-02-23T00:54:25.629Z,98436.34
2023-02-23T00:56:52.901Z,98432.84
2023-02-23T00:59:20.676Z,98434.84
2023-02-23T01:01:48.226Z,98437.03
2023-02-23T01:04:16.763Z,98436.63
2023-02-23T01:06:44.116Z,98438.88
2023-02-23T01:09:28.037Z,98446.28
2023-02-23T01:11:57.265Z,98441.94
2023-02-23T01:14:24.535Z,98437.25
2023-02-23T01:16:51.695Z,98431.13
2023-02-23T01:19:19.704Z,98437.06
2023-02-23T01:21:49.495Z,98440.72
2023-02-23T01:24:18.031Z,98437.06
2023-02-23T01:26:46.354Z,98436.56
2023-02-23T01:29:17.956Z,98435.53
2023-02-23T01:31:51.165Z,98434.34
2023-02-23T01:34:24.245Z,98432.75
2023-02-23T01:36:52.284Z,98425.16
2023-02-23T01:39:21.331Z,98428.41
2023-02-23T01:41:51.868Z,98424.53
2023-02-23T01:44:18.951Z,98428.97
2023-02-23T01:46:49.218Z,98420.88
2023-02-23T01:49:26.622Z,98420.75
2023-02-23T01:52:13.806Z,98421.31
2023-02-23T01:54:51.307Z,98423.00
2023-02-23T01:57:24.801Z,98423.66
2023-02-23T01:59:54.025Z,98421.06
2023-02-23T02:02:49.160Z,98421.91
2023-02-23T02:05:18.677Z,98426.19
2023-02-23T02:07:59.050Z,98420.63
2023-02-23T02:10:40.378Z,98422.72
2023-02-23T02:13:14.692Z,98413.19
2023-02-23T02:16:28.876Z,98425.69
2023-02-23T02:19:40.978Z,98414.78
2023-02-23T02:23:17.726Z,98417.47
2023-02-23T02:25:59.997Z,98415.66
2023-02-23T02:28:45.048Z,98410.97
2023-02-23T02:32:23.486Z,98410.97
2023-02-23T02:35:28.179Z,98412.47
2023-02-23T02:38:42.927Z,98412.41
2023-02-23T02:41:18.976Z,98406.22
2023-02-23T02:44:06.628Z,98404.97
2023-02-23T02:46:59.233Z,98397.66
2023-02-23T02:49:42.899Z,98395.69
2023-02-23T02:52:35.632Z,98394.81
2023-02-23T02:55:28.165Z,98394.50
2023-02-23T02:57:59.207Z,98399.78
2023-02-23T03:01:00.051Z,98404.47
2023-02-23T03:04:06.129Z,98393.53
2023-02-23T03:07:18.257Z,98399.72
2023-02-23T03:10:32.540Z,98399.78
2023-02-23T03:14:11.215Z,98394.34
2023-02-23T03:17:32.709Z,98399.47
2023-02-23T03:20:50.987Z,98394.81
2023-02-23T03:23:44.163Z,98402.56
2023-02-23T03:26:46.742Z,98399.09
2023-02-23T03:30:22.983Z,98397.50
2023-02-23T03:33:18.701Z,98392.31
2023-02-23T03:36:28.793Z,98394.63
2023-02-23T03:39:44.291Z,98396.84
2023-02-23T03:42:39.172Z,98402.22
2023-02-23T03:45:33.191Z,98393.84
2023-02-23T03:48:26.938Z,98403.28
2023-02-23T03:51:25.353Z,98407.31
2023-02-23T03:54:35.968Z,98403.34
2023-02-23T03:57:29.008Z,98402.31
2023-02-23T04:00:23.060Z,98403.72
2023-02-23T04:03:13.564Z,98401.94
2023-02-23T04:06:02.527Z,98402.38
2023-02-23T04:08:57.615Z,98404.56
2023-02-23T04:12:16.555Z,98400.19
2023-02-23T04:14:48.908Z,98404.81
2023-02-23T04:17:18.458Z,98405.66
2023-02-23T04:19:54.157Z,98408.28
2023-02-23T04:22:23.529Z,98409.69
2023-02-23T04:24:50.857Z,98407.63
2023-02-23T04:27:26.736Z,98405.88
2023-02-23T04:29:53.866Z,98414.34
2023-02-23T04:32:21.238Z,98411.66
2023-02-23T04:34:48.977Z,98410.75
2023-02-23T04:37:16.487Z,98410.91
2023-02-23T04:39:48.408Z,98413.66
2023-02-23T04:42:17.452Z,98411.13
2023-02-23T04:44:45.511Z,98414.63
2023-02-23T04:47:19.199Z,98400.94
2023-02-23T04:49:46.725Z,98413.00
2023-02-23T04:52:14.051Z,98410.78
2023-02-23T04:54:41.838Z,98407.34
2023-02-23T04:57:09.669Z,98414.47
2023-02-23T04:59:37.244Z,98409.25
2023-02-23T05:02:04.856Z,98410.50
2023-02-23T05:04:35.040Z,98412.53
2023-02-23T05:07:03.964Z,98412.19
2023-02-23T05:09:32.289Z,98417.56
2023-02-23T05:11:59.828Z,98413.75
2023-02-23T05:14:27.431Z,98418.56
2023-02-23T05:16:54.603Z,98413.56
2023-02-23T05:19:22.086Z,98413.63
2023-02-23T05:21:50.563Z,98411.75
2023-02-23T05:24:19.652Z,98412.72
2023-02-23T05:26:47.988Z,98416.16
2023-02-23T05:29:15.192Z,98413.16
2023-02-23T05:31:42.517Z,98406.38
2023-02-23T05:34:10.247Z,98411.28
2023-02-23T05:36:38.465Z,98414.59
2023-02-23T05:39:07.379Z,98414.75
2023-02-23T05:41:34.486Z,98414.06
2023-02-23T05:44:01.995Z,98419.06
2023-02-23T05:46:29.973Z,98414.94
2023-02-23T05:49:00.855Z,98417.63
2023-02-23T05:51:33.212Z,98421.06
2023-02-23T05:54:01.308Z,98421.22
2023-02-23T05:56:28.453Z,98422.47
2023-02-23T05:58:58.721Z,98421.56
2023-02-23T06:01:27.875Z,98417.53
2023-02-23T06:03:56.128Z,98417.91
2023-02-23T06:06:25.472Z,98415.41
2023-02-23T06:08:54.005Z,98417.47
2023-02-23T06:11:21.811Z,98422.72
2023-02-23T06:13:49.765Z,98419.06
2023-02-23T06:16:17.112Z,98419.81
2023-02-23T06:18:45.351Z,98424.88
2023-02-23T06:21:12.730Z,98435.16
2023-02-23T06:23:40.002Z,98426.47
2023-02-23T06:26:08.253Z,98430.75
2023-02-23T06:28:36.490Z,98440.28
2023-02-23T06:31:03.860Z,98442.78
2023-02-23T06:33:31.105Z,98442.44
2023-02-23T06:35:58.533Z,98441.75
2023-02-23T06:38:27.991Z,98447.78
2023-02-23T06:40:55.114Z,98436.38
2023-02-23T06:43:23.402Z,98443.25
2023-02-23T06:45:50.912Z,98446.81
2023-02-23T06:48:18.059Z,98443.88
2023-02-23T06:50:45.270Z,98446.94
2023-02-23T06:53:12.657Z,98450.16
2023-02-23T06:55:39.868Z,98447.31
2023-02-23T06:58:07.969Z,98453.97
2023-02-23T07:00:35.238Z,98452.81
2023-02-23T07:03:02.718Z,98459.50
2023-02-23T07:05:30.081Z,98468.03
2023-02-23T07:07:57.575Z,98467.72
2023-02-23T07:10:24.851Z,98471.59
2023-02-23T07:12:54.513Z,98469.84
2023-02-23T07:15:22.300Z,98476.75
2023-02-23T07:17:49.440Z,98473.66
2023-02-23T07:20:16.770Z,98482.50
2023-02-23T07:22:44.240Z,98476.38
2023-02-23T07:25:11.868Z,98480.53
2023-02-23T07:27:42.210Z,98480.00
2023-02-23T07:30:11.700Z,98480.88
2023-02-23T07:32:38.771Z,98482.00
2023-02-23T07:35:07.345Z,98481.75
2023-02-23T07:37:34.744Z,98483.56
2023-02-23T07:40:02.327Z,98485.34
2023-02-23T07:42:54.809Z,98483.72
2023-02-23T07:45:23.275Z,98479.78
2023-02-23T07:47:51.108Z,98478.31
2023-02-23T07:50:19.204Z,98483.66
2023-02-23T07:52:47.069Z,98486.66
2023-02-23T07:55:14.824Z,98483.94
2023-02-23T07:57:42.486Z,98486.88
2023-02-23T08:00:11.571Z,98488.22
2023-02-23T08:02:42.132Z,98489.28
2023-02-23T08:05:11.016Z,98491.78
2023-02-23T08:07:38.718Z,98493.56
2023-02-23T08:10:06.927Z,98494.03
2023-02-23T08:12:34.672Z,98493.13
2023-02-23T08:15:03.087Z,98484.66
2023-02-23T08:17:31.058Z,98478.31
2023-02-23T08:20:01.676Z,98499.69
2023-02-23T08:22:31.831Z,98493.16
2023-02-23T08:25:05.824Z,98494.50
2023-02-23T08:27:38.469Z,98499.69
2023-02-23T08:30:09.772Z,98503.69
2023-02-23T08:32:37.406Z,98500.63
2023-02-23T08:35:05.638Z,98494.59
2023-02-23T08:37:33.773Z,98489.97
2023-02-23T08:40:01.311Z,98489.97
2023-02-23T08:42:34.995Z,98490.31
2023-02-23T08:45:03.146Z,98494.81
2023-02-23T08:47:34.337Z,98500.50
2023-02-23T08:50:02.240Z,98493.16
2023-02-23T08:52:29.904Z,98498.34
2023-02-23T08:54:57.763Z,98494.88
2023-02-23T08:57:26.176Z,98497.13
2023-02-23T08:59:53.761Z,98495.09
2023-02-23T09:02:22.700Z,98495.19
2023-02-23T09:04:50.354Z,98504.91
2023-02-23T09:07:19.279Z,98502.59
2023-02-23T09:09:46.922Z,98508.00
2023-02-23T09:12:14.491Z,98503.94
2023-02-23T09:14:42.187Z,98500.84
2023-02-23T09:17:09.855Z,98507.97
2023-02-23T09:19:37.507Z,98506.81
2023-02-23T09:22:05.160Z,98505.38
2023-02-23T09:24:33.270Z,98513.03
2023-02-23T09:27:01.251Z,98511.00
2023-02-23T09:29:28.892Z,98510.94
2023-02-23T09:31:58.087Z,98505.78
2023-02-23T09:34:26.139Z,98505.88
2023-02-23T09:36:55.585Z,98507.03
2023-02-23T09:39:37.017Z,98502.09
2023-02-23T09:42:28.927Z,98500.25
2023-02-23T09:45:20.559Z,98494.22
2023-02-23T09:48:03.393Z,98500.63
2023-02-23T09:50:34.871Z,98498.69
2023-02-23T09:53:21.487Z,98491.81
2023-02-23T09:55:52.213Z,98489.84
2023-02-23T09:58:30.191Z,98495.69
2023-02-23T10:01:25.724Z,98489.81
2023-02-23T10:04:24.692Z,98488.63
2023-02-23T10:07:02.670Z,98493.31
2023-02-23T10:10:03.257Z,98490.72
2023-02-23T10:12:40.055Z,98494.63
2023-02-23T10:15:34.758Z,98485.38
2023-02-23T10:18:56.798Z,98487.31
2023-02-23T10:21:55.420Z,98488.38
2023-02-23T10:24:37.590Z,98485.78
2023-02-23T10:27:38.360Z,98489.13
2023-02-23T10:30:24.280Z,98492.75
2023-02-23T10:33:38.677Z,98492.75
2023-02-23T10:37:04.579Z,98495.19
2023-02-23T10:39:34.619Z,98495.13
2023-02-23T10:42:14.769Z,98496.84
2023-02-23T10:44:45.696Z,98497.13
2023-02-23T10:47:35.556Z,98493.75
2023-02-23T10:50:06.520Z,98490.38
2023-02-23T10:52:42.203Z,98491.59
2023-02-23T10:55:30.298Z,98486.31
2023-02-23T10:58:16.840Z,98501.31
2023-02-23T11:01:06.274Z,98496.69
2023-02-23T11:03:42.907Z,98498.81
2023-02-23T11:06:40.507Z,98486.03
2023-02-23T11:09:45.607Z,98483.84
2023-02-23T11:12:35.156Z,98476.63
2023-02-23T11:15:49.402Z,98475.94
2023-02-23T11:18:26.327Z,98469.09
2023-02-23T11:20:54.640Z,98468.16
2023-02-23T11:23:38.267Z,98461.56
2023-02-23T11:26:37.872Z,98457.06
2023-02-23T11:29:36.852Z,98458.25
2023-02-23T11:32:16.962Z,98457.34
2023-02-23T11:34:45.241Z,98455.88
2023-02-23T11:37:20.090Z,98451.91
2023-02-23T11:40:17.675Z,98453.59
2023-02-23T11:43:19.110Z,98449.63
2023-02-23T11:45:52.285Z,98437.66
2023-02-23T11:48:25.555Z,98436.84
2023-02-23T11:50:56.070Z,98437.25
2023-02-23T11:53:37.768Z,98431.41
2023-02-23T11:56:12.499Z,98426.22
2023-02-23T11:59:18.173Z,98433.03
2023-02-23T12:01:53.623Z,98427.97
2023-02-23T12:04:39.231Z,98421.81
2023-02-23T12:07:44.298Z,98419.78
2023-02-23T12:10:41.187Z,98418.78
2023-02-23T12:13:26.054Z,98418.91
2023-02-23T12:16:15.676Z,98412.63
2023-02-23T12:19:23.242Z,98419.28
2023-02-23T12:22:12.142Z,98411.72
2023-02-23T12:25:04.773Z,98415.19
2023-02-23T12:27:50.471Z,98405.38
2023-02-23T12:30:42.198Z,98401.88
2023-02-23T12:33:21.356Z,98397.00
2023-02-23T12:36:09.234Z,98406.41
2023-02-23T12:39:27.459Z,98405.09
2023-02-23T12:42:23.280Z,98394.19
2023-02-23T12:45:01.720Z,98393.44
2023-02-23T12:48:00.280Z,98392.66
2023-02-23T12:50:52.636Z,98392.13
2023-02-23T12:53:41.544Z,98390.44
2023-02-23T12:56:26.766Z,98384.69
2023-02-23T12:59:13.410Z,98378.81
2023-02-23T13:02:01.685Z,98377.81
2023-02-23T13:05:02.451Z,98372.47
2023-02-23T13:07:48.289Z,98375.38
2023-02-23T13:11:15.991Z,98378.50
2023-02-23T13:14:23.547Z,98378.34
2023-02-23T13:17:02.639Z,98381.31
2023-02-23T13:19:49.752Z,98378.75
2023-02-23T13:23:00.776Z,98385.34
2023-02-23T13:25:57.949Z,98374.66
2023-02-23T13:28:58.660Z,98380.69
2023-02-23T13:31:33.606Z,98376.63
2023-02-23T13:34:06.463Z,98375.41
2023-02-23T13:36:37.167Z,98370.38
2023-02-23T13:39:54.946Z,98378.59
2023-02-23T13:42:52.955Z,98373.34
2023-02-23T13:45:43.384Z,98373.91
2023-02-23T13:49:09.322Z,98369.47
2023-02-23T13:51:48.196Z,98366.63
2023-02-23T13:54:16.362Z,98367.59
2023-02-23T13:56:53.100Z,98363.38
2023-02-23T13:59:26.566Z,98363.53
2023-02-23T14:01:55.579Z,98368.28
2023-02-23T14:04:35.531Z,98362.53
2023-02-23T14:07:28.860Z,98368.28
2023-02-23T14:10:07.551Z,98362.22
2023-02-23T14:12:43.635Z,98361.66
2023-02-23T14:15:28.700Z,98364.38
2023-02-23T14:18:02.402Z,98374.28
2023-02-23T14:20:38.647Z,98357.38
2023-02-23T14:24:08.874Z,98358.63
2023-02-23T14:26:44.344Z,98355.56
2023-02-23T14:29:25.719Z,98357.84
2023-02-23T14:32:11.419Z,98353.59
2023-02-23T14:34:53.791Z,98360.63
2023-02-23T14:37:36.911Z,98357.22
2023-02-23T14:40:37.806Z,98360.56
2023-02-23T14:43:41.732Z,98356.09
2023-02-23T14:46:24.562Z,98360.13
2023-02-23T14:49:21.523Z,98360.03
2023-02-23T14:51:55.813Z,98355.69
2023-02-23T14:54:41.453Z,98362.84
2023-02-23T14:57:26.498Z,98365.72
2023-02-23T15:00:08.764Z,98359.72
2023-02-23T15:02:43.172Z,98362.75
2023-02-23T15:05:17.903Z,98363.16
2023-02-23T15:07:45.717Z,98365.31
2023-02-23T15:10:27.846Z,98361.25
2023-02-23T15:12:56.042Z,98356.75
2023-02-23T15:15:27.441Z,98360.28
2023-02-23T15:18:02.366Z,98358.28
2023-02-23T15:23:04.987Z,98370.19
2023-02-23T15:25:40.403Z,98376.28
2023-02-23T15:28:32.968Z,98374.91
2023-02-23T15:31:04.678Z,98373.44
2023-02-23T15:33:33.228Z,98379.63
2023-02-23T15:36:28.076Z,98373.81
2023-02-23T15:39:01.436Z,98372.94
2023-02-23T15:41:36.931Z,98372.16
2023-02-23T15:44:29.735Z,98374.38
2023-02-23T15:47:20.329Z,98381.03
2023-02-23T15:49:48.152Z,98373.13
2023-02-23T15:52:24.037Z,98373.72
2023-02-23T15:55:16.404Z,98377.06
2023-02-23T15:58:22.069Z,98372.53
2023-02-23T16:01:05.998Z,98373.53
2023-02-23T16:03:38.734Z,98382.69
2023-02-23T16:06:24.535Z,98372.16
2023-02-23T16:09:21.177Z,98379.09
2023-02-23T16:12:12.930Z,98383.34
2023-02-23T16:14:54.003Z,98371.47
2023-02-23T16:17:58.272Z,98379.38
2023-02-23T16:20:41.711Z,98375.16
2023-02-23T16:23:49.638Z,98389.78
2023-02-23T16:26:28.876Z,98389.00
2023-02-23T16:29:01.016Z,98386.28
2023-02-23T16:31:48.919Z,98387.38
2023-02-23T16:34:35.433Z,98387.66
2023-02-23T16:37:20.015Z,98379.25
2023-02-23T16:39:48.171Z,98378.25
2023-02-23T16:42:35.323Z,98377.72
2023-02-23T16:45:02.974Z,98384.63
2023-02-23T16:47:48.093Z,98382.34
2023-02-23T16:50:25.152Z,98380.00
2023-02-23T16:52:53.956Z,98382.19
2023-02-23T16:55:30.697Z,98388.38
2023-02-23T16:58:09.471Z,98391.47
2023-02-23T17:00:37.440Z,98389.84
2023-02-23T17:03:06.645Z,98389.09
2023-02-23T17:05:34.222Z,98387.28
2023-02-23T17:08:01.616Z,98385.56
2023-02-23T17:10:34.620Z,98398.97
2023-02-23T17:13:07.551Z,98385.28
2023-02-23T17:15:39.018Z,98389.06
2023-02-23T17:18:06.715Z,98392.38
2023-02-23T17:20:34.393Z,98391.50
2023-02-23T17:23:02.799Z,98397.72
2023-02-23T17:25:30.516Z,98393.72
2023-02-23T17:27:59.452Z,98392.31
2023-02-23T17:30:27.952Z,98392.97
2023-02-23T17:32:58.993Z,98404.03
2023-02-23T17:35:27.824Z,98398.63
2023-02-23T17:37:55.481Z,98401.78
2023-02-23T17:40:29.116Z,98405.88
2023-02-23T17:43:00.141Z,98411.78
2023-02-23T17:45:29.245Z,98410.78
2023-02-23T17:47:58.325Z,98414.69
2023-02-23T17:50:29.553Z,98417.41
2023-02-23T17:52:57.730Z,98422.84
2023-02-23T17:55:25.810Z,98416.88
2023-02-23T17:57:53.037Z,98415.41
2023-02-23T18:00:21.173Z,98416.03
2023-02-23T18:02:48.540Z,98423.44
2023-02-23T18:05:16.233Z,98420.81
2023-02-23T18:07:45.480Z,98415.19
2023-02-23T18:10:14.538Z,98420.00
2023-02-23T18:12:43.435Z,98423.66
2023-02-23T18:15:10.783Z,98420.75
2023-02-23T18:17:37.942Z,98427.81
2023-02-23T18:20:07.127Z,98429.94
2023-02-23T18:22:34.477Z,98420.84
2023-02-23T18:25:01.963Z,98427.78
2023-02-23T18:27:29.123Z,98416.94
2023-02-23T18:29:56.411Z,98418.88
2023-02-23T18:32:23.988Z,98426.25
2023-02-23T18:34:51.192Z,98424.84
2023-02-23T18:37:25.139Z,98420.31
2023-02-23T18:39:54.112Z,98421.34
2023-02-23T18:42:21.489Z,98422.25
2023-02-23T18:44:49.248Z,98418.75
2023-02-23T18:47:19.900Z,98427.44
2023-02-23T18:49:47.549Z,98418.53
2023-02-23T18:52:14.953Z,98418.66
2023-02-23T18:54:42.133Z,98415.09
2023-02-23T18:57:09.351Z,98418.31
2023-02-23T18:59:36.713Z,98410.97
2023-02-23T19:02:04.796Z,98414.69
2023-02-23T19:04:32.116Z,98415.84
2023-02-23T19:06:59.410Z,98417.13
2023-02-23T19:09:26.720Z,98417.38
2023-02-23T19:11:54.523Z,98424.59
2023-02-23T19:14:32.920Z,98430.06
2023-02-23T19:17:03.931Z,98419.84
2023-02-23T19:19:31.125Z,98422.69
2023-02-23T19:21:58.708Z,98423.03
2023-02-23T19:24:26.318Z,98421.38
2023-02-23T19:26:53.484Z,98417.81
2023-02-23T19:29:23.348Z,98420.16
2023-02-23T19:31:50.815Z,98416.69
2023-02-23T19:34:18.082Z,98423.94
2023-02-23T19:36:46.429Z,98424.84
2023-02-23T19:39:15.523Z,98426.84
2023-02-23T19:41:44.530Z,98431.47
2023-02-23T19:44:11.837Z,98419.63
2023-02-23T19:47:04.952Z,98421.16
2023-02-23T19:49:32.605Z,98420.28
2023-02-23T19:52:00.687Z,98414.19
2023-02-23T19:54:34.010Z,98415.03
2023-02-23T19:57:01.301Z,98425.25
2023-02-23T19:59:28.790Z,98422.75
2023-02-23T20:01:56.136Z,98424.28
2023-02-23T20:04:23.507Z,98422.44
2023-02-23T20:06:54.245Z,98425.88
2023-02-23T20:09:21.868Z,98423.47
2023-02-23T20:11:49.111Z,98423.47
2023-02-23T20:14:17.231Z,98424.16
2023-02-23T20:16:44.619Z,98427.19
2023-02-23T20:19:11.917Z,98423.53
2023-02-23T20:21:39.696Z,98417.44
2023-02-23T20:24:07.466Z,98424.59
2023-02-23T20:26:37.238Z,98423.16
2023-02-23T20:29:11.129Z,98426.13
2023-02-23T20:31:41.943Z,98426.22
2023-02-23T20:34:11.123Z,98428.16
2023-02-23T20:36:40.026Z,98430.13
2023-02-23T20:39:09.429Z,98423.06
2023-02-23T20:41:36.746Z,98423.38
2023-02-23T20:44:04.141Z,98425.09
2023-02-23T20:46:31.415Z,98424.53
2023-02-23T20:48:59.404Z,98432.81
2023-02-23T20:51:27.540Z,98425.44
2023-02-23T20:53:55.468Z,98431.53
2023-02-23T20:56:23.103Z,98426.97
2023-02-23T20:58:50.618Z,98427.28
2023-02-23T21:01:23.694Z,98432.81
2023-02-23T21:03:54.097Z,98422.59
2023-02-23T21:06:24.911Z,98424.09
2023-02-23T21:09:02.643Z,98419.13
2023-02-23T21:11:32.319Z,98425.97
2023-02-23T21:14:00.801Z,98431.75
2023-02-23T21:16:32.272Z,98415.81
2023-02-23T21:19:05.769Z,98420.84
2023-02-23T21:21:45.617Z,98414.25
2023-02-23T21:24:15.674Z,98409.06
2023-02-23T21:26:43.680Z,98415.03
2023-02-23T21:29:14.894Z,98415.63
2023-02-23T21:31:46.172Z,98416.19
2023-02-23T21:34:21.148Z,98409.47
2023-02-23T21:36:49.860Z,98410.50
2023-02-23T21:39:16.996Z,98407.13
2023-02-23T21:41:44.089Z,98410.38
2023-02-23T21:44:11.845Z,98410.03
2023-02-23T21:46:43.800Z,98407.31
2023-02-23T21:49:11.087Z,98404.03
2023-02-23T21:51:38.909Z,98407.09
2023-02-23T21:54:06.433Z,98405.56
2023-02-23T21:56:34.854Z,98407.50
2023-02-23T21:59:07.994Z,98410.75
2023-02-23T22:01:38.763Z,98406.91
2023-02-23T22:04:10.958Z,98407.44
2023-02-23T22:06:43.312Z,98410.75
2023-02-23T22:09:15.362Z,98411.72
2023-02-23T22:11:47.522Z,98405.34
2023-02-23T22:14:16.643Z,98408.84
2023-02-23T22:16:44.932Z,98412.47
2023-02-23T22:19:13.098Z,98413.44
2023-02-23T22:21:42.371Z,98407.88
2023-02-23T22:24:13.712Z,98412.84
2023-02-23T22:27:04.094Z,98410.31
2023-02-23T22:29:31.370Z,98409.63
2023-02-23T22:31:58.682Z,98402.22
2023-02-23T22:34:25.885Z,98405.34
2023-02-23T22:36:53.125Z,98409.00
2023-02-23T22:39:20.346Z,98404.75
2023-02-23T22:41:48.746Z,98409.19
2023-02-23T22:44:21.347Z,98402.25
2023-02-23T22:46:49.289Z,98406.91
2023-02-23T22:49:19.914Z,98397.22
2023-02-23T22:51:47.702Z,98393.50
2023-02-23T22:54:15.409Z,98395.13
2023-02-23T22:56:42.699Z,98395.03
2023-02-23T22:59:10.905Z,98386.84
2023-02-23T23:01:42.902Z,98388.56
2023-02-23T23:04:21.928Z,98389.34
2023-02-23T23:06:59.513Z,98391.06
2023-02-23T23:09:40.494Z,98380.06
2023-02-23T23:12:48.862Z,98379.00
2023-02-23T23:15:17.420Z,98377.44
2023-02-23T23:17:48.350Z,98378.69
2023-02-23T23:20:25.518Z,98370.59
2023-02-23T23:22:53.376Z,98373.88
2023-02-23T23:25:22.756Z,98374.16
2023-02-23T23:27:54.386Z,98373.88
2023-02-23T23:30:23.216Z,98358.25
2023-02-23T23:40:47.520Z,98347.56
2023-02-23T23:43:20.615Z,98348.22
2023-02-23T23:45:51.237Z,98353.03
2023-02-23T23:48:20.296Z,98349.97
2023-02-23T23:50:47.720Z,98347.84
2023-02-23T23:53:14.861Z,98345.31
2023-02-23T23:55:41.949Z,98341.44
2023-02-23T23:58:09.216Z,98342.63
